Time;durP1;ratioP1;P1;durP2;ratioP2;P2;SDS_P1;SDS_P2;PMS_P1;PMS_P2;Temp;Humidity;BMP_temperature;BMP_pressure;BME280_temperature;BME280_humidity;BME280_pressure;Samples;Min_cycle;Max_cycle;Signal;HPM_P1;HPM_P2
2022/04/18 00:01:34;;;;;;;4.85;2.50;;;5.60;62.30;;;;;;5021410;28;20112;-71
2022/04/18 00:04:00;;;;;;;6.18;2.40;;;5.60;62.50;;;;;;5030697;28;20382;-71
2022/04/18 00:06:26;;;;;;;6.25;2.03;;;5.50;62.50;;;;;;5034393;28;20024;-71
2022/04/18 00:08:51;;;;;;;6.43;2.40;;;5.30;63.60;;;;;;5049406;28;20036;-71
2022/04/18 00:11:17;;;;;;;4.35;2.45;;;5.30;63.50;;;;;;5030315;28;20393;-71
2022/04/18 00:13:42;;;;;;;3.95;2.30;;;5.10;63.80;;;;;;5020791;28;20029;-71
2022/04/18 00:16:08;;;;;;;4.75;2.30;;;5.00;64.40;;;;;;5023829;28;20401;-71
2022/04/18 00:18:33;;;;;;;4.30;2.28;;;4.90;64.70;;;;;;5032398;28;20029;-71
2022/04/18 00:20:59;;;;;;;4.20;2.15;;;4.90;65.10;;;;;;5031530;28;20427;-71
2022/04/18 00:23:24;;;;;;;4.40;2.13;;;4.70;65.70;;;;;;5034970;28;20079;-71
2022/04/18 00:25:50;;;;;;;4.28;2.20;;;4.60;65.90;;;;;;5024100;28;20445;-71
2022/04/18 00:28:15;;;;;;;4.63;2.08;;;4.70;66.20;;;;;;5035189;28;20041;-71
2022/04/18 00:30:41;;;;;;;5.72;2.38;;;4.70;66.10;;;;;;5027187;28;20436;-71
2022/04/18 00:33:09;;;;;;;6.63;2.30;;;4.80;65.60;;;;;;5031886;28;20665;-71
2022/04/18 00:35:35;;;;;;;6.05;2.60;;;4.70;65.60;;;;;;5023586;28;20370;-72
2022/04/18 00:38:00;;;;;;;4.90;2.28;;;4.80;65.30;;;;;;5034960;28;20051;-71
2022/04/18 00:40:26;;;;;;;3.20;1.98;;;5.00;64.70;;;;;;5030376;28;20073;-71
2022/04/18 00:42:51;;;;;;;5.05;2.22;;;5.10;64.30;;;;;;5036130;28;20092;-71
2022/04/18 00:45:17;;;;;;;4.43;2.55;;;5.00;64.90;;;;;;5033238;28;20033;-71
2022/04/18 00:47:42;;;;;;;5.93;2.13;;;5.10;64.40;;;;;;5030912;28;20044;-71
2022/04/18 00:50:09;;;;;;;3.55;2.00;;;4.90;64.90;;;;;;5028813;28;20120;-71
2022/04/18 00:52:37;;;;;;;3.97;2.05;;;4.80;65.70;;;;;;5034703;28;20029;-71
2022/04/18 00:55:03;;;;;;;4.85;2.30;;;4.60;66.30;;;;;;5024724;28;22163;-72
2022/04/18 00:57:30;;;;;;;4.88;2.10;;;4.60;67.20;;;;;;5028727;28;20029;-71
2022/04/18 00:59:55;;;;;;;4.38;2.17;;;4.50;67.40;;;;;;5039454;28;20453;-71
2022/04/18 01:02:21;;;;;;;8.65;2.75;;;4.40;67.60;;;;;;5029206;28;20486;-71
2022/04/18 01:04:46;;;;;;;4.18;2.22;;;4.30;67.90;;;;;;5029729;28;20060;-71
2022/04/18 01:07:12;;;;;;;7.63;2.53;;;4.30;68.30;;;;;;5031027;28;20104;-72
2022/04/18 01:09:38;;;;;;;5.95;2.70;;;4.10;68.50;;;;;;5027131;28;20392;-71
2022/04/18 01:12:04;;;;;;;4.40;2.35;;;4.10;69.10;;;;;;5029705;28;20025;-71
2022/04/18 01:14:29;;;;;;;7.47;3.42;;;4.10;69.50;;;;;;5042919;28;20468;-71
2022/04/18 01:16:55;;;;;;;6.47;2.85;;;4.10;69.90;;;;;;5029574;28;20456;-71
2022/04/18 01:19:21;;;;;;;5.78;3.00;;;4.00;70.60;;;;;;5029849;28;20067;-72
2022/04/18 01:21:46;;;;;;;6.60;2.70;;;3.90;70.70;;;;;;5034333;28;20464;-71
2022/04/18 01:29:40;;;;;;;6.93;3.38;;;3.80;71.60;;;;;;5031945;28;20495;-71
2022/04/18 01:32:06;;;;;;;7.38;3.08;;;3.70;71.80;;;;;;5030127;28;20037;-71
2022/04/18 01:34:31;;;;;;;5.40;2.97;;;3.70;72.20;;;;;;5040277;28;20044;-71
2022/04/18 01:36:57;;;;;;;5.82;2.92;;;3.70;72.30;;;;;;5028748;28;20410;-71
2022/04/18 01:39:22;;;;;;;5.15;2.92;;;3.60;72.30;;;;;;5027800;28;20085;-71
2022/04/18 01:41:48;;;;;;;7.93;3.38;;;3.60;72.50;;;;;;5037336;28;20025;-71
2022/04/18 01:44:14;;;;;;;7.05;3.33;;;3.60;72.40;;;;;;5034423;28;20168;-71
2022/04/18 01:46:39;;;;;;;5.95;2.92;;;3.50;72.60;;;;;;5032910;28;20021;-72
2022/04/18 01:49:04;;;;;;;7.70;3.33;;;3.50;72.60;;;;;;5027882;28;20117;-71
2022/04/18 01:51:30;;;;;;;8.25;3.40;;;3.40;72.60;;;;;;5032644;28;20040;-71
2022/04/18 01:53:55;;;;;;;7.90;3.83;;;3.40;72.80;;;;;;5036069;28;20048;-71
2022/04/18 01:56:21;;;;;;;6.35;3.10;;;3.40;73.10;;;;;;5037679;28;20048;-71
2022/04/18 01:58:48;;;;;;;6.65;3.38;;;3.30;73.40;;;;;;5034278;28;20084;-71
2022/04/18 02:01:13;;;;;;;9.25;3.80;;;3.30;73.80;;;;;;5037500;28;20083;-72
2022/04/18 02:03:42;;;;;;;5.90;3.65;;;3.30;73.90;;;;;;5033845;28;20473;-73
2022/04/18 02:06:08;;;;;;;8.55;3.65;;;3.30;73.90;;;;;;5040768;28;20111;-71
2022/04/18 02:08:35;;;;;;;8.20;3.92;;;3.20;74.00;;;;;;5035118;28;20109;-71
2022/04/18 02:11:00;;;;;;;7.00;3.65;;;3.30;74.40;;;;;;5029327;28;20041;-71
2022/04/18 02:13:28;;;;;;;6.75;3.30;;;3.20;74.20;;;;;;5033443;28;20393;-71
2022/04/18 02:15:55;;;;;;;6.60;3.30;;;3.20;74.50;;;;;;5028800;28;20135;-71
2022/04/18 02:18:21;;;;;;;8.95;3.78;;;3.20;74.40;;;;;;5032595;28;20072;-71
2022/04/18 02:20:46;;;;;;;6.30;3.60;;;3.10;74.70;;;;;;5031976;28;20060;-71
2022/04/18 02:23:12;;;;;;;5.50;3.20;;;3.10;74.90;;;;;;5034145;28;20379;-71
2022/04/18 02:25:37;;;;;;;5.95;3.30;;;3.10;74.90;;;;;;5030525;28;20437;-71
2022/04/18 02:28:03;;;;;;;11.07;3.70;;;3.00;74.90;;;;;;5036221;28;20472;-71
2022/04/18 02:30:28;;;;;;;6.95;3.35;;;3.00;75.00;;;;;;5029425;28;20603;-71
2022/04/18 02:32:54;;;;;;;6.55;3.70;;;2.90;75.30;;;;;;5022414;28;20033;-70
2022/04/18 02:35:22;;;;;;;6.78;3.40;;;2.90;75.50;;;;;;5032402;28;20124;-71
2022/04/18 02:37:48;;;;;;;8.80;3.92;;;2.90;75.50;;;;;;5036261;28;20025;-71
2022/04/18 02:40:14;;;;;;;7.10;3.58;;;2.80;75.80;;;;;;5031267;28;20022;-70
2022/04/18 02:42:42;;;;;;;9.70;4.35;;;2.80;75.90;;;;;;5039587;28;20032;-71
2022/04/18 02:45:08;;;;;;;9.10;4.30;;;2.80;76.10;;;;;;5030299;28;20067;-71
2022/04/18 02:47:34;;;;;;;7.72;4.22;;;2.80;76.40;;;;;;5034432;28;20429;-72
2022/04/18 02:49:59;;;;;;;7.32;3.80;;;2.80;76.60;;;;;;5021625;28;20121;-73
2022/04/18 02:52:25;;;;;;;8.43;4.43;;;2.70;76.90;;;;;;5032665;28;20493;-71
2022/04/18 02:54:50;;;;;;;6.95;3.78;;;2.70;77.10;;;;;;5032462;28;20087;-71
2022/04/18 02:57:16;;;;;;;7.65;4.30;;;2.70;77.20;;;;;;5032670;28;20045;-71
2022/04/18 02:59:41;;;;;;;9.30;4.43;;;2.70;77.40;;;;;;5030707;28;20529;-71
2022/04/18 03:02:07;;;;;;;7.60;4.10;;;2.80;77.30;;;;;;5038238;28;20033;-71
2022/04/18 03:04:33;;;;;;;9.07;4.32;;;2.70;77.40;;;;;;5031653;28;20493;-72
2022/04/18 03:06:58;;;;;;;8.70;4.60;;;2.80;77.60;;;;;;5039514;28;20037;-71
2022/04/18 03:09:24;;;;;;;7.80;4.35;;;2.80;77.60;;;;;;5032491;28;20045;-71
2022/04/18 03:11:50;;;;;;;7.53;4.38;;;2.90;78.00;;;;;;5033995;28;20548;-71
2022/04/18 03:14:15;;;;;;;10.52;4.25;;;2.90;78.10;;;;;;5021945;28;20551;-71
2022/04/18 03:16:41;;;;;;;11.40;5.10;;;2.80;78.10;;;;;;5038140;28;20051;-71
2022/04/18 03:19:06;;;;;;;8.05;4.53;;;2.80;78.40;;;;;;5032099;28;20041;-71
2022/04/18 03:21:32;;;;;;;8.55;4.65;;;2.70;78.60;;;;;;5030595;28;20116;-71
2022/04/18 03:23:57;;;;;;;8.75;4.70;;;2.70;79.10;;;;;;5030709;28;20037;-72
2022/04/18 03:26:23;;;;;;;9.38;5.15;;;2.60;79.70;;;;;;5035414;28;20132;-71
2022/04/18 03:28:48;;;;;;;8.93;5.15;;;2.50;79.60;;;;;;5036184;28;20025;-71
2022/04/18 03:31:14;;;;;;;9.82;5.07;;;2.60;79.40;;;;;;5032572;28;20119;-71
2022/04/18 03:33:39;;;;;;;17.10;12.02;;;2.60;79.50;;;;;;5028445;28;20056;-71
2022/04/18 03:41:33;;;;;;;9.77;5.30;;;2.90;79.60;;;;;;5034464;28;20491;-71
2022/04/18 03:43:58;;;;;;;11.70;5.78;;;2.90;78.90;;;;;;5048621;28;20131;-71
2022/04/18 03:46:24;;;;;;;11.13;5.97;;;2.90;79.00;;;;;;5034101;28;20042;-71
2022/04/18 03:48:50;;;;;;;9.05;5.45;;;2.90;79.00;;;;;;5024087;28;20030;-71
2022/04/18 03:51:15;;;;;;;15.10;6.65;;;2.90;79.00;;;;;;5029119;28;20060;-71
2022/04/18 03:53:41;;;;;;;11.85;5.60;;;2.90;79.20;;;;;;5029388;28;20550;-73
2022/04/18 03:56:07;;;;;;;10.00;6.50;;;2.80;79.10;;;;;;5043436;28;20036;-71
2022/04/18 03:58:32;;;;;;;12.00;6.72;;;2.90;79.30;;;;;;5032128;28;20416;-71
2022/04/18 04:00:58;;;;;;;11.30;6.13;;;2.90;79.40;;;;;;5033080;28;20489;-71
2022/04/18 04:03:26;;;;;;;13.13;6.90;;;2.80;79.50;;;;;;5031084;28;20029;-71
2022/04/18 04:05:53;;;;;;;13.18;7.18;;;2.90;79.70;;;;;;5021422;28;20029;-71
2022/04/18 04:08:22;;;;;;;13.48;7.38;;;2.80;79.80;;;;;;5036528;28;20484;-71
2022/04/18 04:10:49;;;;;;;14.05;7.40;;;2.90;79.80;;;;;;5032009;28;20388;-71
2022/04/18 04:13:14;;;;;;;11.00;6.65;;;3.00;79.80;;;;;;5028312;28;20115;-72
2022/04/18 04:15:40;;;;;;;12.70;6.60;;;2.90;79.80;;;;;;5030865;28;20120;-71
2022/04/18 04:18:05;;;;;;;14.63;7.88;;;3.00;79.80;;;;;;5033265;28;20116;-67
2022/04/18 04:20:31;;;;;;;11.57;6.80;;;3.00;79.70;;;;;;5036367;28;20451;-67
2022/04/18 04:22:56;;;;;;;14.15;7.97;;;3.10;79.50;;;;;;5026529;28;20067;-66
2022/04/18 04:25:22;;;;;;;14.63;7.18;;;3.10;79.90;;;;;;5033835;28;20482;-68
2022/04/18 04:27:47;;;;;;;13.70;7.40;;;3.10;79.50;;;;;;5032072;28;20095;-66
2022/04/18 04:30:13;;;;;;;11.00;7.40;;;3.10;79.70;;;;;;5035434;28;20042;-67
2022/04/18 04:32:38;;;;;;;13.93;7.40;;;3.10;79.90;;;;;;5024242;28;20180;-67
2022/04/18 04:35:04;;;;;;;13.65;7.18;;;3.10;79.80;;;;;;5025042;28;20112;-67
2022/04/18 04:37:30;;;;;;;13.02;7.78;;;3.10;80.00;;;;;;5027064;28;20537;-67
2022/04/18 04:39:55;;;;;;;13.85;7.22;;;3.10;79.90;;;;;;5018926;28;20045;-68
2022/04/18 04:42:21;;;;;;;14.23;6.75;;;3.10;80.10;;;;;;5028390;28;20396;-67
2022/04/18 04:44:46;;;;;;;12.10;6.80;;;3.00;80.00;;;;;;5030687;28;20519;-67
2022/04/18 04:47:12;;;;;;;14.50;7.18;;;3.10;80.20;;;;;;5023631;28;20037;-68
2022/04/18 04:49:38;;;;;;;13.65;6.93;;;3.10;80.20;;;;;;5026458;28;20048;-66
2022/04/18 04:52:05;;;;;;;11.75;7.22;;;3.10;80.00;;;;;;5028968;28;20025;-67
2022/04/18 04:54:40;;;;;;;13.13;7.63;;;3.10;80.10;;;;;;5029740;28;20115;-67
2022/04/18 04:57:05;;;;;;;13.38;7.25;;;3.10;80.20;;;;;;5019029;28;20038;-67
2022/04/18 04:59:31;;;;;;;13.35;7.30;;;3.20;80.30;;;;;;5029288;28;20491;-67
2022/04/18 05:01:56;;;;;;;14.57;7.32;;;3.30;80.30;;;;;;5026665;28;20026;-67
2022/04/18 05:04:25;;;;;;;11.95;7.40;;;3.40;80.20;;;;;;5028667;28;20045;-67
2022/04/18 05:06:51;;;;;;;12.43;6.80;;;3.50;80.30;;;;;;5026585;28;20029;-66
2022/04/18 05:09:17;;;;;;;10.75;6.88;;;3.40;80.10;;;;;;5030294;28;20041;-69
2022/04/18 05:11:42;;;;;;;12.45;7.30;;;3.40;80.10;;;;;;5028423;28;20033;-67
2022/04/18 05:14:08;;;;;;;13.25;7.10;;;3.40;80.30;;;;;;5017751;28;20044;-67
2022/04/18 05:16:33;;;;;;;11.48;6.85;;;3.50;80.40;;;;;;5025208;28;20062;-67
2022/04/18 05:18:58;;;;;;;13.45;7.68;;;3.60;80.10;;;;;;5030486;28;20044;-67
2022/04/18 05:21:24;;;;;;;14.27;6.75;;;3.80;80.00;;;;;;5025751;28;20037;-67
2022/04/18 05:23:50;;;;;;;12.85;7.25;;;3.90;79.60;;;;;;5029703;28;20033;-67
2022/04/18 05:26:15;;;;;;;12.38;7.63;;;4.00;79.20;;;;;;5027526;28;20040;-67
2022/04/18 05:28:42;;;;;;;13.30;7.68;;;4.10;79.00;;;;;;5029553;28;20033;-68
2022/04/18 05:31:07;;;;;;;10.38;6.90;;;4.30;78.80;;;;;;5015230;28;20057;-69
2022/04/18 05:33:33;;;;;;;12.85;6.80;;;4.40;78.00;;;;;;5025338;28;20025;-68
2022/04/18 05:35:59;;;;;;;12.18;7.10;;;4.50;77.90;;;;;;5033359;28;20037;-72
2022/04/18 05:38:24;;;;;;;11.40;6.65;;;4.60;77.80;;;;;;5030357;28;20025;-68
2022/04/18 05:40:50;;;;;;;11.60;6.82;;;4.70;77.30;;;;;;5023287;28;20037;-70
2022/04/18 05:43:17;;;;;;;11.02;6.65;;;4.80;77.20;;;;;;5035267;28;20152;-68
2022/04/18 05:45:43;;;;;;;10.48;6.68;;;5.10;76.80;;;;;;5029491;28;20030;-71
2022/04/18 05:48:09;;;;;;;14.25;6.95;;;5.20;76.30;;;;;;5027608;28;20061;-69
2022/04/18 05:50:34;;;;;;;11.63;7.30;;;5.30;75.60;;;;;;5031770;28;20084;-68
2022/04/18 05:53:00;;;;;;;11.40;6.88;;;5.60;74.50;;;;;;5030067;28;20029;-69
2022/04/18 05:55:26;;;;;;;11.75;6.00;;;5.70;74.20;;;;;;5033334;28;20032;-68
2022/04/18 05:57:55;;;;;;;10.45;6.47;;;6.00;73.40;;;;;;5036582;28;20469;-70
2022/04/18 06:00:20;;;;;;;10.35;6.43;;;6.10;72.20;;;;;;5038486;28;20040;-69
2022/04/18 06:02:46;;;;;;;12.63;6.70;;;6.30;71.80;;;;;;5030433;28;20049;-69
2022/04/18 06:05:12;;;;;;;10.63;5.65;;;6.40;71.50;;;;;;5026367;28;20048;-68
2022/04/18 06:07:42;;;;;;;10.60;6.45;;;6.60;70.80;;;;;;5032279;28;20373;-68
2022/04/18 06:10:08;;;;;;;10.60;6.13;;;6.70;70.30;;;;;;5021640;28;20083;-68
2022/04/18 06:12:33;;;;;;;12.93;6.45;;;6.90;69.90;;;;;;5040714;28;20029;-69
2022/04/18 06:14:59;;;;;;;10.75;5.85;;;7.00;69.80;;;;;;5027814;28;20148;-69
2022/04/18 06:17:24;;;;;;;9.73;5.72;;;7.10;69.00;;;;;;5040945;28;20045;-69
2022/04/18 06:19:50;;;;;;;9.95;5.72;;;7.30;69.20;;;;;;5040654;28;20035;-68
2022/04/18 06:22:16;;;;;;;11.88;5.88;;;7.40;68.90;;;;;;5027499;28;20033;-68
2022/04/18 06:24:42;;;;;;;10.40;5.88;;;7.60;68.70;;;;;;5032440;28;20350;-69
2022/04/18 06:27:07;;;;;;;13.20;6.72;;;7.80;68.00;;;;;;5035541;28;20052;-69
2022/04/18 06:29:33;;;;;;;9.43;5.68;;;7.90;67.40;;;;;;5029550;28;20046;-69
2022/04/18 06:31:58;;;;;;;10.38;5.70;;;8.00;67.70;;;;;;5036800;28;20026;-69
2022/04/18 06:34:25;;;;;;;11.30;5.90;;;8.20;67.60;;;;;;5030519;28;20052;-69
2022/04/18 06:36:51;;;;;;;9.80;5.30;;;8.40;67.10;;;;;;5036156;28;20049;-71
2022/04/18 06:39:16;;;;;;;10.82;6.30;;;8.50;64.60;;;;;;5031813;28;20072;-68
2022/04/18 06:41:42;;;;;;;10.00;5.93;;;8.60;64.30;;;;;;5031545;28;20156;-70
2022/04/18 06:44:07;;;;;;;10.13;5.88;;;8.80;64.00;;;;;;5035844;28;20084;-69
2022/04/18 06:46:33;;;;;;;12.43;5.75;;;8.80;64.00;;;;;;5023130;28;20495;-70
2022/04/18 06:48:58;;;;;;;9.88;5.88;;;9.00;64.10;;;;;;5024965;28;20034;-69
2022/04/18 06:51:24;;;;;;;9.32;5.88;;;9.40;62.50;;;;;;5031196;28;20481;-69
2022/04/18 06:53:49;;;;;;;10.43;5.78;;;9.30;62.90;;;;;;5032028;28;20037;-69
2022/04/18 06:58:59;;;;;;;8.68;5.43;;;9.90;61.90;;;;;;5030457;28;20028;-70
2022/04/18 07:01:25;;;;;;;8.88;5.28;;;10.00;59.50;;;;;;5029981;28;20400;-69
2022/04/18 07:03:50;;;;;;;11.15;6.07;;;10.10;60.40;;;;;;5032216;28;20033;-69
2022/04/18 07:06:16;;;;;;;10.02;6.13;;;10.50;59.80;;;;;;5031169;28;20041;-70
2022/04/18 07:08:41;;;;;;;8.80;5.38;;;10.70;58.30;;;;;;5030169;28;20392;-71
2022/04/18 07:11:07;;;;;;;8.00;5.03;;;10.70;57.60;;;;;;5027692;28;20050;-73
2022/04/18 07:13:32;;;;;;;11.23;5.32;;;10.90;59.90;;;;;;5030289;28;20025;-72
2022/04/18 07:15:59;;;;;;;9.18;5.35;;;11.20;57.10;;;;;;5028947;28;20037;-69
2022/04/18 07:18:24;;;;;;;11.38;5.63;;;11.10;57.00;;;;;;5033651;28;20026;-69
2022/04/18 07:20:50;;;;;;;10.65;6.03;;;11.20;57.00;;;;;;5030968;28;20095;-73
2022/04/18 07:23:15;;;;;;;9.32;5.47;;;11.10;56.20;;;;;;5033815;28;20112;-69
2022/04/18 07:25:41;;;;;;;8.90;5.38;;;11.20;55.90;;;;;;5030482;28;20214;-69
2022/04/18 07:28:06;;;;;;;10.52;5.85;;;11.40;56.20;;;;;;5036290;28;20072;-69
2022/04/18 07:30:32;;;;;;;9.65;5.72;;;11.00;56.50;;;;;;5032445;28;20068;-70
2022/04/18 07:32:58;;;;;;;10.75;5.72;;;11.50;55.80;;;;;;5022711;28;20045;-69
2022/04/18 07:35:24;;;;;;;10.43;5.82;;;11.60;55.00;;;;;;5029258;28;20021;-70
2022/04/18 07:40:34;;;;;;;10.68;5.68;;;11.90;53.20;;;;;;5030863;28;20160;-69
2022/04/18 07:43:00;;;;;;;11.20;5.60;;;11.80;54.80;;;;;;5034868;28;20131;-73
2022/04/18 07:45:25;;;;;;;9.30;5.72;;;12.10;54.50;;;;;;5031345;28;20455;-70
2022/04/18 07:47:52;;;;;;;9.63;5.45;;;12.10;54.40;;;;;;5041551;28;20025;-69
2022/04/18 07:50:17;;;;;;;9.95;5.53;;;12.10;54.10;;;;;;5031382;28;20236;-69
2022/04/18 07:52:43;;;;;;;11.02;5.68;;;12.10;54.10;;;;;;5034281;28;20122;-70
2022/04/18 07:55:08;;;;;;;9.18;5.60;;;12.50;53.30;;;;;;5025910;28;20030;-69
2022/04/18 07:57:34;;;;;;;9.32;5.50;;;12.80;52.80;;;;;;5029690;28;20575;-70
2022/04/18 08:00:00;;;;;;;11.05;5.80;;;13.10;51.80;;;;;;5027187;28;20128;-69
2022/04/18 08:02:25;;;;;;;9.20;5.65;;;13.20;51.00;;;;;;5026681;28;20038;-75
2022/04/18 08:04:51;;;;;;;9.80;5.30;;;13.70;50.40;;;;;;5031759;28;20044;-70
2022/04/18 08:07:16;;;;;;;10.27;5.22;;;14.00;49.70;;;;;;5025824;28;20029;-70
2022/04/18 08:09:42;;;;;;;8.32;4.78;;;14.10;48.90;;;;;;5031648;28;20123;-71
2022/04/18 08:12:11;;;;;;;7.40;4.22;;;14.50;48.50;;;;;;5027711;28;20029;-69
2022/04/18 08:14:37;;;;;;;9.65;4.78;;;14.50;47.20;;;;;;5028250;28;20052;-70
2022/04/18 08:17:03;;;;;;;8.68;4.78;;;14.40;48.50;;;;;;5031091;28;20030;-69
2022/04/18 08:19:29;;;;;;;9.13;4.88;;;14.20;46.20;;;;;;5033992;28;20033;-69
2022/04/18 08:21:55;;;;;;;10.10;4.93;;;14.90;46.10;;;;;;5028238;28;20487;-68
2022/04/18 08:24:21;;;;;;;8.27;4.35;;;15.00;45.80;;;;;;5028832;28;20028;-68
2022/04/18 08:26:47;;;;;;;8.57;4.40;;;15.20;44.20;;;;;;5035294;28;20461;-68
2022/04/18 08:29:13;;;;;;;7.55;4.22;;;14.60;44.30;;;;;;5023314;28;20029;-71
2022/04/18 08:31:38;;;;;;;8.63;4.93;;;14.80;47.00;;;;;;5039886;28;20087;-71
2022/04/18 08:34:04;;;;;;;6.85;3.65;;;14.80;47.70;;;;;;5033413;28;20087;-68
2022/04/18 08:36:30;;;;;;;5.95;3.38;;;15.10;45.00;;;;;;5032028;28;20029;-68
2022/04/18 08:38:55;;;;;;;6.53;3.63;;;14.70;40.20;;;;;;5022757;28;20461;-69
2022/04/18 08:41:24;;;;;;;7.63;3.55;;;15.30;41.10;;;;;;5033151;28;20029;-71
2022/04/18 08:43:50;;;;;;;7.78;3.92;;;15.60;40.10;;;;;;5039688;28;20041;-69
2022/04/18 08:46:17;;;;;;;8.77;4.07;;;15.70;40.70;;;;;;5023591;28;20026;-69
2022/04/18 08:54:13;;;;;;;6.57;3.50;;;15.30;40.80;;;;;;5024251;28;20088;-69
2022/04/18 08:56:39;;;;;;;6.40;3.90;;;15.80;42.20;;;;;;5026713;28;20029;-69
2022/04/18 08:59:04;;;;;;;9.32;4.65;;;15.70;42.00;;;;;;5029957;28;20030;-69
2022/04/18 09:01:30;;;;;;;10.43;4.40;;;15.60;42.90;;;;;;5027499;28;20108;-69
2022/04/18 09:03:56;;;;;;;7.53;4.63;;;15.70;43.90;;;;;;5027246;28;20029;-68
2022/04/18 09:06:24;;;;;;;7.03;3.75;;;16.30;41.70;;;;;;5031339;28;20034;-68
2022/04/18 09:08:55;;;;;;;7.25;4.05;;;16.50;40.40;;;;;;5025451;28;20408;-71
2022/04/18 09:11:32;;;;;;;8.88;4.05;;;16.50;39.70;;;;;;5023741;28;20033;-68
2022/04/18 09:14:09;;;;;;;7.03;3.83;;;16.50;37.80;;;;;;5029018;28;20034;-69
2022/04/18 09:16:36;;;;;;;10.07;3.78;;;16.80;38.10;;;;;;5030479;28;20405;-67
2022/04/18 09:19:10;;;;;;;5.72;3.13;;;17.00;38.20;;;;;;5027669;28;20041;-70
2022/04/18 09:21:57;;;;;;;5.45;3.17;;;16.80;35.20;;;;;;5029098;28;20094;-68
2022/04/18 09:24:34;;;;;;;5.70;3.15;;;16.70;35.60;;;;;;5036892;28;20474;-69
2022/04/18 09:27:14;;;;;;;9.50;3.78;;;16.70;35.30;;;;;;5040381;28;20507;-69
2022/04/18 09:29:40;;;;;;;5.82;3.35;;;16.60;36.80;;;;;;5026351;28;20091;-69
2022/04/18 09:32:10;;;;;;;5.65;3.47;;;17.30;36.20;;;;;;5027131;28;20036;-68
2022/04/18 09:34:40;;;;;;;7.55;3.08;;;17.60;33.90;;;;;;5022851;28;20037;-67
2022/04/18 09:37:17;;;;;;;5.30;3.08;;;17.80;35.60;;;;;;5021877;28;20499;-67
2022/04/18 09:39:54;;;;;;;9.95;4.50;;;16.50;34.10;;;;;;5025493;28;20042;-68
2022/04/18 09:42:25;;;;;;;6.32;3.45;;;16.80;36.20;;;;;;5027376;28;20030;-73
2022/04/18 09:44:52;;;;;;;6.50;3.80;;;17.00;35.90;;;;;;5017429;28;20037;-73
2022/04/18 09:47:19;;;;;;;5.28;2.92;;;16.60;33.60;;;;;;5021587;28;20108;-73
2022/04/18 09:49:45;;;;;;;6.10;3.42;;;16.90;33.00;;;;;;5029353;28;20436;-72
2022/04/18 09:52:12;;;;;;;8.10;3.72;;;16.10;32.10;;;;;;5032871;28;20029;-76
2022/04/18 09:54:50;;;;;;;5.88;3.33;;;16.30;33.90;;;;;;5029863;28;20489;-74
2022/04/18 09:57:24;;;;;;;6.35;2.85;;;16.40;32.40;;;;;;5022844;28;20120;-73
2022/04/18 09:59:51;;;;;;;9.02;3.10;;;16.20;29.10;;;;;;5031633;28;20030;-69
2022/04/18 10:02:18;;;;;;;5.18;3.00;;;16.60;30.20;;;;;;5032928;28;20029;-68
2022/04/18 10:04:44;;;;;;;6.30;3.40;;;17.10;31.20;;;;;;5023878;28;20139;-68
2022/04/18 10:07:10;;;;;;;6.07;3.10;;;17.40;32.80;;;;;;5026344;28;20026;-68
2022/04/18 10:09:40;;;;;;;6.57;3.88;;;17.40;33.50;;;;;;5029936;28;20462;-68
2022/04/18 10:12:13;;;;;;;10.60;3.90;;;17.30;35.50;;;;;;5026269;28;20033;-67
2022/04/18 10:14:40;;;;;;;7.93;4.07;;;17.50;35.30;;;;;;5030816;28;20330;-68
2022/04/18 10:17:07;;;;;;;6.60;3.83;;;17.30;32.20;;;;;;5031758;28;20493;-68
2022/04/18 10:19:51;;;;;;;7.22;4.60;;;17.20;35.40;;;;;;5030669;28;20026;-68
2022/04/18 10:22:52;;;;;;;7.18;3.70;;;17.30;36.20;;;;;;5025442;28;20033;-68
2022/04/18 10:26:04;;;;;;;5.97;3.45;;;17.40;33.00;;;;;;5025824;28;20026;-68
2022/04/18 10:28:42;;;;;;;8.10;3.95;;;17.50;32.60;;;;;;4995434;28;20042;-68
2022/04/18 10:31:15;;;;;;;7.47;3.88;;;17.50;34.80;;;;;;5028954;28;20029;-68
2022/04/18 10:33:40;;;;;;;7.35;4.18;;;17.20;34.60;;;;;;5037112;28;20380;-68
2022/04/18 10:36:07;;;;;;;8.35;5.15;;;17.40;36.20;;;;;;5024651;28;20030;-68
2022/04/18 10:38:40;;;;;;;6.82;4.43;;;16.80;34.60;;;;;;5032657;28;20033;-69
2022/04/18 10:41:36;;;;;;;8.23;3.80;;;17.40;34.70;;;;;;5030005;28;20030;-68
2022/04/18 10:44:13;;;;;;;9.32;4.32;;;17.20;34.20;;;;;;5036924;28;20140;-68
2022/04/18 10:46:41;;;;;;;8.50;3.58;;;17.50;33.00;;;;;;5023597;28;20030;-68
2022/04/18 10:49:16;;;;;;;5.43;3.35;;;16.50;34.60;;;;;;5025932;28;20132;-68
2022/04/18 10:51:44;;;;;;;6.75;3.53;;;17.30;34.40;;;;;;5031816;28;20666;-68
2022/04/18 10:54:23;;;;;;;6.70;4.18;;;17.90;32.40;;;;;;5029005;28;20061;-67
2022/04/18 10:56:56;;;;;;;6.75;3.20;;;17.90;33.40;;;;;;5026133;28;20109;-68
2022/04/18 10:59:25;;;;;;;5.95;3.47;;;17.50;31.10;;;;;;5026522;28;20466;-68
2022/04/18 11:01:53;;;;;;;5.93;3.22;;;18.00;31.40;;;;;;5022781;28;20428;-67
2022/04/18 11:04:26;;;;;;;8.43;3.40;;;18.20;30.40;;;;;;5023750;28;20116;-68
2022/04/18 11:06:59;;;;;;;6.15;3.45;;;18.50;31.80;;;;;;5026065;28;20032;-68
2022/04/18 11:09:25;;;;;;;6.93;3.50;;;18.50;29.00;;;;;;5021661;28;20029;-68
2022/04/18 11:12:05;;;;;;;7.97;4.70;;;18.60;31.20;;;;;;5026835;28;20057;-68
2022/04/18 11:14:55;;;;;;;5.53;3.73;;;18.70;31.20;;;;;;5025883;28;20060;-68
2022/04/18 11:17:40;;;;;;;6.32;3.33;;;18.90;30.00;;;;;;5030727;28;20017;-69
2022/04/18 11:20:28;;;;;;;5.70;3.13;;;18.70;28.60;;;;;;5025784;28;20056;-70
2022/04/18 11:23:14;;;;;;;5.80;2.95;;;19.10;29.20;;;;;;5024895;28;20492;-70
2022/04/18 11:25:50;;;;;;;6.93;3.83;;;19.50;28.70;;;;;;5027761;28;20049;-70
2022/04/18 11:28:16;;;;;;;6.10;3.15;;;18.50;28.10;;;;;;5023814;28;20042;-70
2022/04/18 11:30:42;;;;;;;5.13;3.20;;;19.00;27.80;;;;;;5029949;28;20041;-70
2022/04/18 11:33:07;;;;;;;6.50;4.63;;;18.00;30.60;;;;;;5023551;28;20037;-68
2022/04/18 11:35:33;;;;;;;6.93;4.05;;;18.70;30.20;;;;;;5035199;28;20056;-69
2022/04/18 11:38:07;;;;;;;3.53;2.38;;;19.00;28.90;;;;;;5017390;28;20033;-69
2022/04/18 11:40:39;;;;;;;8.82;6.40;;;19.10;29.50;;;;;;5020935;28;20041;-70
2022/04/18 11:43:16;;;;;;;4.63;2.70;;;19.40;29.10;;;;;;5024644;28;20102;-69
2022/04/18 11:45:42;;;;;;;6.78;4.28;;;19.10;26.90;;;;;;5026088;28;20045;-70
2022/04/18 11:48:11;;;;;;;6.90;3.60;;;19.70;30.90;;;;;;5030754;28;20028;-69
2022/04/18 11:50:39;;;;;;;6.28;3.58;;;19.90;30.50;;;;;;5027950;28;20455;-69
2022/04/18 11:53:07;;;;;;;4.05;2.63;;;20.00;29.80;;;;;;5037920;28;20476;-69
2022/04/18 11:55:45;;;;;;;5.13;3.08;;;19.80;30.10;;;;;;5030365;28;20116;-69
2022/04/18 11:58:11;;;;;;;4.60;2.63;;;20.60;30.30;;;;;;5030638;28;20099;-69
2022/04/18 12:09:15;;;;;;;5.38;2.58;;;21.30;29.20;;;;;;5030125;28;20040;-70
2022/04/18 12:11:41;;;;;;;4.60;2.50;;;21.60;29.30;;;;;;5028074;28;20512;-70
2022/04/18 12:14:06;;;;;;;5.38;2.55;;;21.00;28.10;;;;;;5027060;28;20108;-70
2022/04/18 12:16:37;;;;;;;5.65;2.50;;;21.80;28.30;;;;;;5028038;28;20030;-70
2022/04/18 12:19:04;;;;;;;4.30;2.25;;;22.00;29.00;;;;;;5030594;28;20025;-70
2022/04/18 12:21:30;;;;;;;4.00;2.08;;;21.70;30.30;;;;;;5029794;28;20032;-70
2022/04/18 12:23:59;;;;;;;4.05;2.22;;;21.60;28.90;;;;;;5034557;28;20380;-70
2022/04/18 12:26:27;;;;;;;6.50;3.03;;;22.20;28.50;;;;;;5024671;28;20040;-70
2022/04/18 12:29:05;;;;;;;5.35;2.97;;;21.50;28.60;;;;;;5023538;28;20431;-70
2022/04/18 12:31:31;;;;;;;4.60;2.47;;;21.50;29.40;;;;;;5030821;28;20370;-69
2022/04/18 12:33:57;;;;;;;4.75;2.90;;;21.60;29.60;;;;;;5030118;28;20080;-70
2022/04/18 12:36:27;;;;;;;4.75;3.00;;;20.80;30.10;;;;;;5025980;28;20036;-70
2022/04/18 12:38:53;;;;;;;5.57;2.75;;;21.00;30.60;;;;;;5026494;28;20044;-70
2022/04/18 12:41:32;;;;;;;4.57;2.28;;;21.80;30.70;;;;;;5034458;28;20041;-69
2022/04/18 12:43:58;;;;;;;3.92;2.15;;;21.60;28.80;;;;;;5025620;28;20041;-69
2022/04/18 12:46:25;;;;;;;4.60;2.58;;;22.00;30.80;;;;;;5029845;28;20076;-70
2022/04/18 12:48:52;;;;;;;3.92;2.45;;;20.90;28.80;;;;;;5026083;28;20129;-69
2022/04/18 12:51:28;;;;;;;5.22;2.42;;;21.70;31.10;;;;;;5029008;28;20033;-69
2022/04/18 12:53:55;;;;;;;4.53;2.20;;;22.60;29.50;;;;;;5021325;28;20146;-69
2022/04/18 12:56:25;;;;;;;4.00;2.33;;;22.70;28.30;;;;;;5026897;28;20029;-70
2022/04/18 12:58:53;;;;;;;;;;;22.90;28.20;;;;;;5024667;28;20033;-69
2022/04/18 13:01:34;;;;;;;5.30;2.28;;;22.20;29.50;;;;;;5021685;28;20248;-69
2022/04/18 13:04:00;;;;;;;3.28;2.03;;;22.50;28.00;;;;;;5024676;28;20103;-69
2022/04/18 13:06:28;;;;;;;4.10;1.80;;;22.00;29.40;;;;;;5023078;28;20044;-69
2022/04/18 13:09:12;;;;;;;4.03;1.95;;;22.60;27.20;;;;;;5025009;28;20030;-69
2022/04/18 13:11:45;;;;;;;3.92;1.90;;;23.00;26.90;;;;;;5026049;28;20037;-69
2022/04/18 13:14:12;;;;;;;2.40;1.63;;;23.60;27.30;;;;;;5031503;28;20026;-69
2022/04/18 13:16:45;;;;;;;3.38;2.00;;;23.80;26.90;;;;;;5027925;28;20021;-69
2022/04/18 13:19:14;;;;;;;3.28;2.20;;;23.20;27.90;;;;;;5026622;28;20025;-69
2022/04/18 13:21:41;;;;;;;5.43;2.17;;;23.90;26.50;;;;;;5023701;28;20040;-69
2022/04/18 13:24:08;;;;;;;3.40;1.90;;;23.60;27.80;;;;;;5024919;28;20036;-69